sensor_id;sensor_type;location;lat;lon;timestamp;P1;durP1;ratioP1;P2;durP2;ratioP2
16792;SDS011;8513;42.662;23.350;2023-02-15T00:01:28;32.73;;;28.97;;
16792;SDS011;8513;42.662;23.350;2023-02-15T00:03:54;36.37;;;30.50;;
16792;SDS011;8513;42.662;23.350;2023-02-15T00:06:20;35.67;;;30.33;;
16792;SDS011;8513;42.662;23.350;2023-02-15T00:08:45;34.10;;;30.43;;
16792;SDS011;8513;42.662;23.350;2023-02-15T00:11:12;34.77;;;30.97;;
16792;SDS011;8513;42.662;23.350;2023-02-15T00:13:40;35.57;;;31.17;;
16792;SDS011;8513;42.662;23.350;2023-02-15T00:16:11;35.17;;;30.87;;
16792;SDS011;8513;42.662;23.350;2023-02-15T00:18:41;36.70;;;31.47;;
16792;SDS011;8513;42.662;23.350;2023-02-15T00:21:07;34.27;;;30.47;;
16792;SDS011;8513;42.662;23.350;2023-02-15T00:23:34;35.07;;;30.33;;
16792;SDS011;8513;42.662;23.350;2023-02-15T00:26:06;35.60;;;31.10;;
16792;SDS011;8513;42.662;23.350;2023-02-15T00:28:33;36.37;;;30.17;;
16792;SDS011;8513;42.662;23.350;2023-02-15T00:31:05;34.23;;;29.60;;
16792;SDS011;8513;42.662;23.350;2023-02-15T00:33:33;34.00;;;30.23;;
16792;SDS011;8513;42.662;23.350;2023-02-15T00:35:59;32.33;;;28.83;;
16792;SDS011;8513;42.662;23.350;2023-02-15T00:38:26;38.03;;;30.03;;
16792;SDS011;8513;42.662;23.350;2023-02-15T00:40:53;35.43;;;30.60;;
16792;SDS011;8513;42.662;23.350;2023-02-15T00:43:22;33.13;;;29.17;;
16792;SDS011;8513;42.662;23.350;2023-02-15T00:45:48;33.63;;;29.10;;
16792;SDS011;8513;42.662;23.350;2023-02-15T00:48:13;34.00;;;28.97;;
16792;SDS011;8513;42.662;23.350;2023-02-15T00:50:39;33.57;;;29.17;;
16792;SDS011;8513;42.662;23.350;2023-02-15T00:53:05;33.23;;;29.23;;
16792;SDS011;8513;42.662;23.350;2023-02-15T00:55:30;32.90;;;29.33;;
16792;SDS011;8513;42.662;23.350;2023-02-15T00:57:56;33.03;;;29.43;;
16792;SDS011;8513;42.662;23.350;2023-02-15T01:00:21;33.67;;;28.83;;
16792;SDS011;8513;42.662;23.350;2023-02-15T01:02:46;32.67;;;28.00;;
16792;SDS011;8513;42.662;23.350;2023-02-15T01:05:12;33.47;;;29.33;;
16792;SDS011;8513;42.662;23.350;2023-02-15T01:07:38;31.80;;;28.33;;
16792;SDS011;8513;42.662;23.350;2023-02-15T01:10:04;31.63;;;28.17;;
16792;SDS011;8513;42.662;23.350;2023-02-15T01:12:31;31.27;;;27.87;;
16792;SDS011;8513;42.662;23.350;2023-02-15T01:14:57;32.70;;;28.83;;
16792;SDS011;8513;42.662;23.350;2023-02-15T01:17:22;31.07;;;27.53;;
16792;SDS011;8513;42.662;23.350;2023-02-15T01:19:47;32.77;;;29.07;;
16792;SDS011;8513;42.662;23.350;2023-02-15T01:22:13;31.27;;;27.97;;
16792;SDS011;8513;42.662;23.350;2023-02-15T01:24:38;30.47;;;27.23;;
16792;SDS011;8513;42.662;23.350;2023-02-15T01:27:04;31.57;;;28.17;;
16792;SDS011;8513;42.662;23.350;2023-02-15T01:29:29;30.37;;;27.03;;
16792;SDS011;8513;42.662;23.350;2023-02-15T01:31:55;31.37;;;27.97;;
16792;SDS011;8513;42.662;23.350;2023-02-15T01:34:20;33.10;;;27.87;;
16792;SDS011;8513;42.662;23.350;2023-02-15T01:36:45;30.73;;;27.40;;
16792;SDS011;8513;42.662;23.350;2023-02-15T01:39:11;31.20;;;27.77;;
16792;SDS011;8513;42.662;23.350;2023-02-15T01:41:36;33.43;;;29.80;;
16792;SDS011;8513;42.662;23.350;2023-02-15T01:44:02;32.43;;;28.93;;
16792;SDS011;8513;42.662;23.350;2023-02-15T01:46:38;31.10;;;27.70;;
16792;SDS011;8513;42.662;23.350;2023-02-15T01:49:14;32.70;;;28.53;;
16792;SDS011;8513;42.662;23.350;2023-02-15T01:51:43;31.17;;;27.97;;
16792;SDS011;8513;42.662;23.350;2023-02-15T01:54:13;32.87;;;28.67;;
16792;SDS011;8513;42.662;23.350;2023-02-15T01:56:41;31.53;;;28.17;;
16792;SDS011;8513;42.662;23.350;2023-02-15T01:59:09;31.83;;;28.53;;
16792;SDS011;8513;42.662;23.350;2023-02-15T02:01:39;30.10;;;26.43;;
16792;SDS011;8513;42.662;23.350;2023-02-15T02:04:13;30.97;;;27.63;;
16792;SDS011;8513;42.662;23.350;2023-02-15T02:06:39;31.63;;;28.23;;
16792;SDS011;8513;42.662;23.350;2023-02-15T02:09:05;30.23;;;27.03;;
16792;SDS011;8513;42.662;23.350;2023-02-15T02:11:31;32.17;;;27.80;;
16792;SDS011;8513;42.662;23.350;2023-02-15T02:13:57;30.03;;;26.83;;
16792;SDS011;8513;42.662;23.350;2023-02-15T02:16:42;31.13;;;27.80;;
16792;SDS011;8513;42.662;23.350;2023-02-15T02:33:32;30.53;;;26.77;;
16792;SDS011;8513;42.662;23.350;2023-02-15T02:36:21;30.03;;;26.83;;
16792;SDS011;8513;42.662;23.350;2023-02-15T02:41:45;31.10;;;27.77;;
16792;SDS011;8513;42.662;23.350;2023-02-15T02:47:05;28.87;;;25.77;;
16792;SDS011;8513;42.662;23.350;2023-02-15T02:49:38;29.87;;;26.67;;
16792;SDS011;8513;42.662;23.350;2023-02-15T02:52:06;29.47;;;26.33;;
16792;SDS011;8513;42.662;23.350;2023-02-15T02:54:52;28.30;;;25.00;;
16792;SDS011;8513;42.662;23.350;2023-02-15T02:57:19;28.47;;;25.47;;
16792;SDS011;8513;42.662;23.350;2023-02-15T02:59:49;27.97;;;24.87;;
16792;SDS011;8513;42.662;23.350;2023-02-15T03:02:18;29.33;;;25.40;;
16792;SDS011;8513;42.662;23.350;2023-02-15T03:04:49;28.63;;;25.53;;
16792;SDS011;8513;42.662;23.350;2023-02-15T03:07:23;26.87;;;23.97;;
16792;SDS011;8513;42.662;23.350;2023-02-15T03:09:53;29.20;;;26.00;;
16792;SDS011;8513;42.662;23.350;2023-02-15T03:12:23;29.60;;;25.60;;
16792;SDS011;8513;42.662;23.350;2023-02-15T03:14:52;26.67;;;23.67;;
16792;SDS011;8513;42.662;23.350;2023-02-15T03:17:22;29.13;;;25.93;;
16792;SDS011;8513;42.662;23.350;2023-02-15T03:19:51;28.47;;;25.37;;
16792;SDS011;8513;42.662;23.350;2023-02-15T03:22:21;29.03;;;24.27;;
16792;SDS011;8513;42.662;23.350;2023-02-15T03:27:22;28.37;;;25.40;;
16792;SDS011;8513;42.662;23.350;2023-02-15T03:29:53;27.40;;;24.47;;
16792;SDS011;8513;42.662;23.350;2023-02-15T03:32:22;29.27;;;24.50;;
16792;SDS011;8513;42.662;23.350;2023-02-15T03:34:50;28.07;;;22.83;;
16792;SDS011;8513;42.662;23.350;2023-02-15T03:40:23;26.43;;;23.63;;
16792;SDS011;8513;42.662;23.350;2023-02-15T03:46:07;26.80;;;24.00;;
16792;SDS011;8513;42.662;23.350;2023-02-15T03:48:41;26.20;;;23.40;;
16792;SDS011;8513;42.662;23.350;2023-02-15T03:51:12;26.80;;;24.00;;
16792;SDS011;8513;42.662;23.350;2023-02-15T03:57:19;26.47;;;23.57;;
16792;SDS011;8513;42.662;23.350;2023-02-15T04:00:18;26.23;;;23.30;;
16792;SDS011;8513;42.662;23.350;2023-02-15T04:05:51;27.67;;;24.77;;
16792;SDS011;8513;42.662;23.350;2023-02-15T04:08:16;27.63;;;24.40;;
16792;SDS011;8513;42.662;23.350;2023-02-15T04:10:42;26.83;;;24.03;;
16792;SDS011;8513;42.662;23.350;2023-02-15T04:13:29;26.33;;;23.63;;
16792;SDS011;8513;42.662;23.350;2023-02-15T04:15:55;26.10;;;23.30;;
16792;SDS011;8513;42.662;23.350;2023-02-15T04:18:34;26.70;;;23.80;;
16792;SDS011;8513;42.662;23.350;2023-02-15T04:21:26;27.00;;;23.97;;
16792;SDS011;8513;42.662;23.350;2023-02-15T04:24:12;26.67;;;23.73;;
16792;SDS011;8513;42.662;23.350;2023-02-15T04:26:56;27.00;;;23.90;;
16792;SDS011;8513;42.662;23.350;2023-02-15T04:29:23;27.23;;;24.30;;
16792;SDS011;8513;42.662;23.350;2023-02-15T04:31:50;27.57;;;23.90;;
16792;SDS011;8513;42.662;23.350;2023-02-15T04:34:16;27.60;;;24.53;;
16792;SDS011;8513;42.662;23.350;2023-02-15T04:36:42;25.13;;;22.43;;
16792;SDS011;8513;42.662;23.350;2023-02-15T04:39:08;28.00;;;24.10;;
16792;SDS011;8513;42.662;23.350;2023-02-15T04:41:34;27.70;;;24.47;;
16792;SDS011;8513;42.662;23.350;2023-02-15T04:43:59;29.33;;;25.30;;
16792;SDS011;8513;42.662;23.350;2023-02-15T04:46:25;27.50;;;24.43;;
16792;SDS011;8513;42.662;23.350;2023-02-15T04:48:52;27.77;;;24.87;;
16792;SDS011;8513;42.662;23.350;2023-02-15T04:51:17;27.13;;;24.23;;
16792;SDS011;8513;42.662;23.350;2023-02-15T04:53:43;26.67;;;23.97;;
16792;SDS011;8513;42.662;23.350;2023-02-15T04:56:08;27.10;;;24.23;;
16792;SDS011;8513;42.662;23.350;2023-02-15T04:58:34;28.73;;;24.07;;
16792;SDS011;8513;42.662;23.350;2023-02-15T05:01:00;27.47;;;24.47;;
16792;SDS011;8513;42.662;23.350;2023-02-15T05:03:26;28.80;;;24.30;;
16792;SDS011;8513;42.662;23.350;2023-02-15T05:05:51;29.03;;;24.70;;
16792;SDS011;8513;42.662;23.350;2023-02-15T05:08:17;27.23;;;24.33;;
16792;SDS011;8513;42.662;23.350;2023-02-15T05:10:42;27.37;;;24.30;;
16792;SDS011;8513;42.662;23.350;2023-02-15T05:13:07;29.23;;;24.10;;
16792;SDS011;8513;42.662;23.350;2023-02-15T05:15:33;26.77;;;23.87;;
16792;SDS011;8513;42.662;23.350;2023-02-15T05:17:59;27.73;;;24.77;;
16792;SDS011;8513;42.662;23.350;2023-02-15T05:20:24;29.57;;;25.63;;
16792;SDS011;8513;42.662;23.350;2023-02-15T05:22:53;28.13;;;24.33;;
16792;SDS011;8513;42.662;23.350;2023-02-15T05:25:18;28.13;;;24.63;;
16792;SDS011;8513;42.662;23.350;2023-02-15T05:28:02;27.57;;;24.57;;
16792;SDS011;8513;42.662;23.350;2023-02-15T05:30:47;27.27;;;24.30;;
16792;SDS011;8513;42.662;23.350;2023-02-15T05:33:23;28.27;;;25.27;;
16792;SDS011;8513;42.662;23.350;2023-02-15T05:35:49;27.53;;;24.57;;
16792;SDS011;8513;42.662;23.350;2023-02-15T05:38:16;28.83;;;24.80;;
16792;SDS011;8513;42.662;23.350;2023-02-15T05:40:41;28.93;;;24.50;;
16792;SDS011;8513;42.662;23.350;2023-02-15T05:43:06;27.80;;;24.50;;
16792;SDS011;8513;42.662;23.350;2023-02-15T05:45:32;27.93;;;24.83;;
16792;SDS011;8513;42.662;23.350;2023-02-15T05:47:57;27.93;;;24.63;;
16792;SDS011;8513;42.662;23.350;2023-02-15T05:50:23;27.07;;;23.43;;
16792;SDS011;8513;42.662;23.350;2023-02-15T05:52:49;25.80;;;23.03;;
16792;SDS011;8513;42.662;23.350;2023-02-15T05:55:15;26.70;;;22.63;;
16792;SDS011;8513;42.662;23.350;2023-02-15T05:57:41;28.63;;;24.30;;
16792;SDS011;8513;42.662;23.350;2023-02-15T06:00:06;27.30;;;24.40;;
16792;SDS011;8513;42.662;23.350;2023-02-15T06:02:34;25.80;;;22.87;;
16792;SDS011;8513;42.662;23.350;2023-02-15T06:05:00;26.80;;;23.90;;
16792;SDS011;8513;42.662;23.350;2023-02-15T06:07:26;26.53;;;22.23;;
16792;SDS011;8513;42.662;23.350;2023-02-15T06:09:51;25.90;;;23.10;;
16792;SDS011;8513;42.662;23.350;2023-02-15T06:12:16;24.37;;;21.83;;
16792;SDS011;8513;42.662;23.350;2023-02-15T06:14:42;24.47;;;21.87;;
16792;SDS011;8513;42.662;23.350;2023-02-15T06:17:07;25.13;;;22.30;;
16792;SDS011;8513;42.662;23.350;2023-02-15T06:19:33;25.27;;;21.83;;
16792;SDS011;8513;42.662;23.350;2023-02-15T06:21:58;24.77;;;21.87;;
16792;SDS011;8513;42.662;23.350;2023-02-15T06:24:24;27.00;;;23.30;;
16792;SDS011;8513;42.662;23.350;2023-02-15T06:26:49;26.00;;;23.30;;
16792;SDS011;8513;42.662;23.350;2023-02-15T06:29:15;25.67;;;21.90;;
16792;SDS011;8513;42.662;23.350;2023-02-15T06:31:40;25.17;;;22.47;;
16792;SDS011;8513;42.662;23.350;2023-02-15T06:34:06;24.73;;;22.13;;
16792;SDS011;8513;42.662;23.350;2023-02-15T06:36:31;24.40;;;21.73;;
16792;SDS011;8513;42.662;23.350;2023-02-15T06:38:57;26.70;;;21.40;;
16792;SDS011;8513;42.662;23.350;2023-02-15T06:41:22;24.40;;;21.80;;
16792;SDS011;8513;42.662;23.350;2023-02-15T06:43:48;23.73;;;21.23;;
16792;SDS011;8513;42.662;23.350;2023-02-15T06:46:14;25.53;;;21.80;;
16792;SDS011;8513;42.662;23.350;2023-02-15T06:48:40;24.23;;;21.60;;
16792;SDS011;8513;42.662;23.350;2023-02-15T06:51:05;24.23;;;21.70;;
16792;SDS011;8513;42.662;23.350;2023-02-15T06:53:30;23.90;;;20.77;;
16792;SDS011;8513;42.662;23.350;2023-02-15T06:56:03;23.23;;;20.73;;
16792;SDS011;8513;42.662;23.350;2023-02-15T06:58:32;22.90;;;20.50;;
16792;SDS011;8513;42.662;23.350;2023-02-15T07:00:58;25.03;;;21.07;;
16792;SDS011;8513;42.662;23.350;2023-02-15T07:03:24;21.93;;;19.63;;
16792;SDS011;8513;42.662;23.350;2023-02-15T07:05:53;22.17;;;19.77;;
16792;SDS011;8513;42.662;23.350;2023-02-15T07:08:19;22.53;;;20.13;;
16792;SDS011;8513;42.662;23.350;2023-02-15T07:10:45;22.17;;;19.87;;
16792;SDS011;8513;42.662;23.350;2023-02-15T07:13:10;20.63;;;18.33;;
16792;SDS011;8513;42.662;23.350;2023-02-15T07:15:36;22.03;;;18.77;;
16792;SDS011;8513;42.662;23.350;2023-02-15T07:18:01;21.50;;;19.17;;
16792;SDS011;8513;42.662;23.350;2023-02-15T07:20:26;21.43;;;19.13;;
16792;SDS011;8513;42.662;23.350;2023-02-15T07:22:53;21.70;;;18.33;;
16792;SDS011;8513;42.662;23.350;2023-02-15T07:25:19;19.77;;;17.77;;
16792;SDS011;8513;42.662;23.350;2023-02-15T07:27:44;20.40;;;18.23;;
16792;SDS011;8513;42.662;23.350;2023-02-15T07:30:10;19.13;;;17.00;;
16792;SDS011;8513;42.662;23.350;2023-02-15T07:32:37;20.30;;;18.20;;
16792;SDS011;8513;42.662;23.350;2023-02-15T07:35:22;20.53;;;17.57;;
16792;SDS011;8513;42.662;23.350;2023-02-15T07:37:48;20.27;;;18.13;;
16792;SDS011;8513;42.662;23.350;2023-02-15T07:40:13;19.83;;;17.53;;
16792;SDS011;8513;42.662;23.350;2023-02-15T07:42:39;21.67;;;18.07;;
16792;SDS011;8513;42.662;23.350;2023-02-15T07:45:04;19.33;;;17.27;;
16792;SDS011;8513;42.662;23.350;2023-02-15T07:47:30;18.57;;;16.07;;
16792;SDS011;8513;42.662;23.350;2023-02-15T07:49:55;17.83;;;15.53;;
16792;SDS011;8513;42.662;23.350;2023-02-15T07:52:21;19.07;;;14.80;;
16792;SDS011;8513;42.662;23.350;2023-02-15T07:54:46;20.47;;;17.07;;
16792;SDS011;8513;42.662;23.350;2023-02-15T07:57:11;20.97;;;16.93;;
16792;SDS011;8513;42.662;23.350;2023-02-15T07:59:37;23.50;;;16.60;;
16792;SDS011;8513;42.662;23.350;2023-02-15T08:02:02;21.07;;;17.17;;
16792;SDS011;8513;42.662;23.350;2023-02-15T08:04:28;22.63;;;17.00;;
16792;SDS011;8513;42.662;23.350;2023-02-15T08:06:53;22.10;;;17.57;;
16792;SDS011;8513;42.662;23.350;2023-02-15T08:09:19;22.37;;;17.70;;
16792;SDS011;8513;42.662;23.350;2023-02-15T08:11:46;18.53;;;16.10;;
16792;SDS011;8513;42.662;23.350;2023-02-15T08:14:13;21.17;;;17.87;;
16792;SDS011;8513;42.662;23.350;2023-02-15T08:16:43;20.97;;;16.97;;
16792;SDS011;8513;42.662;23.350;2023-02-15T08:21:46;20.50;;;16.77;;
16792;SDS011;8513;42.662;23.350;2023-02-15T08:24:22;20.70;;;17.43;;
16792;SDS011;8513;42.662;23.350;2023-02-15T08:26:50;21.57;;;17.33;;
16792;SDS011;8513;42.662;23.350;2023-02-15T08:29:17;19.87;;;16.13;;
16792;SDS011;8513;42.662;23.350;2023-02-15T08:31:45;18.77;;;16.13;;
16792;SDS011;8513;42.662;23.350;2023-02-15T08:34:13;18.07;;;15.07;;
16792;SDS011;8513;42.662;23.350;2023-02-15T08:36:40;19.37;;;16.40;;
16792;SDS011;8513;42.662;23.350;2023-02-15T08:39:06;19.13;;;15.00;;
16792;SDS011;8513;42.662;23.350;2023-02-15T08:41:32;19.13;;;15.90;;
16792;SDS011;8513;42.662;23.350;2023-02-15T08:44:01;19.73;;;16.07;;
16792;SDS011;8513;42.662;23.350;2023-02-15T08:46:32;20.77;;;17.27;;
16792;SDS011;8513;42.662;23.350;2023-02-15T08:48:59;17.27;;;15.37;;
16792;SDS011;8513;42.662;23.350;2023-02-15T08:51:29;19.03;;;16.13;;
16792;SDS011;8513;42.662;23.350;2023-02-15T08:53:56;18.90;;;16.13;;
16792;SDS011;8513;42.662;23.350;2023-02-15T08:56:25;19.30;;;16.03;;
16792;SDS011;8513;42.662;23.350;2023-02-15T08:58:52;17.67;;;15.60;;
16792;SDS011;8513;42.662;23.350;2023-02-15T09:01:19;20.17;;;15.43;;
16792;SDS011;8513;42.662;23.350;2023-02-15T09:03:47;19.93;;;15.23;;
16792;SDS011;8513;42.662;23.350;2023-02-15T09:06:15;19.13;;;15.27;;
16792;SDS011;8513;42.662;23.350;2023-02-15T09:08:41;21.77;;;16.43;;
16792;SDS011;8513;42.662;23.350;2023-02-15T09:11:11;17.23;;;15.17;;
16792;SDS011;8513;42.662;23.350;2023-02-15T09:13:59;18.97;;;16.33;;
16792;SDS011;8513;42.662;23.350;2023-02-15T09:16:31;15.93;;;14.27;;
16792;SDS011;8513;42.662;23.350;2023-02-15T09:18:58;19.90;;;15.83;;
16792;SDS011;8513;42.662;23.350;2023-02-15T09:21:26;16.70;;;14.90;;
16792;SDS011;8513;42.662;23.350;2023-02-15T09:23:55;17.40;;;15.70;;
16792;SDS011;8513;42.662;23.350;2023-02-15T09:26:27;17.37;;;15.53;;
16792;SDS011;8513;42.662;23.350;2023-02-15T09:28:58;18.93;;;16.93;;
16792;SDS011;8513;42.662;23.350;2023-02-15T09:31:29;19.87;;;16.37;;
16792;SDS011;8513;42.662;23.350;2023-02-15T09:33:57;19.10;;;16.50;;
16792;SDS011;8513;42.662;23.350;2023-02-15T09:38:58;20.67;;;15.90;;
16792;SDS011;8513;42.662;23.350;2023-02-15T09:53:29;18.20;;;15.77;;
16792;SDS011;8513;42.662;23.350;2023-02-15T10:12:32;19.23;;;17.17;;
16792;SDS011;8513;42.662;23.350;2023-02-15T10:28:33;19.97;;;16.97;;
16792;SDS011;8513;42.662;23.350;2023-02-15T10:31:12;19.77;;;17.00;;
16792;SDS011;8513;42.662;23.350;2023-02-15T10:33:47;18.53;;;16.60;;
16792;SDS011;8513;42.662;23.350;2023-02-15T10:50:02;18.83;;;16.47;;
16792;SDS011;8513;42.662;23.350;2023-02-15T10:52:39;21.53;;;17.23;;
16792;SDS011;8513;42.662;23.350;2023-02-15T10:57:59;19.03;;;17.03;;
16792;SDS011;8513;42.662;23.350;2023-02-15T11:00:38;20.00;;;16.93;;
16792;SDS011;8513;42.662;23.350;2023-02-15T11:06:01;19.97;;;17.87;;
16792;SDS011;8513;42.662;23.350;2023-02-15T11:08:31;18.90;;;16.93;;
16792;SDS011;8513;42.662;23.350;2023-02-15T11:11:05;17.67;;;15.87;;
16792;SDS011;8513;42.662;23.350;2023-02-15T11:13:36;19.87;;;16.20;;
16792;SDS011;8513;42.662;23.350;2023-02-15T11:16:16;18.77;;;16.07;;
16792;SDS011;8513;42.662;23.350;2023-02-15T11:24:13;20.50;;;17.17;;
16792;SDS011;8513;42.662;23.350;2023-02-15T11:32:24;19.00;;;16.97;;
16792;SDS011;8513;42.662;23.350;2023-02-15T11:34:55;21.87;;;18.43;;
16792;SDS011;8513;42.662;23.350;2023-02-15T11:40:46;19.27;;;16.47;;
16792;SDS011;8513;42.662;23.350;2023-02-15T11:43:16;20.37;;;16.80;;
16792;SDS011;8513;42.662;23.350;2023-02-15T11:45:48;19.77;;;17.67;;
16792;SDS011;8513;42.662;23.350;2023-02-15T11:48:14;20.27;;;18.07;;
16792;SDS011;8513;42.662;23.350;2023-02-15T11:50:43;20.53;;;17.67;;
16792;SDS011;8513;42.662;23.350;2023-02-15T11:53:16;21.53;;;17.73;;
16792;SDS011;8513;42.662;23.350;2023-02-15T11:55:44;21.07;;;18.87;;
16792;SDS011;8513;42.662;23.350;2023-02-15T12:03:48;21.20;;;19.10;;
16792;SDS011;8513;42.662;23.350;2023-02-15T12:08:50;21.03;;;18.83;;
16792;SDS011;8513;42.662;23.350;2023-02-15T12:11:22;20.03;;;17.93;;
16792;SDS011;8513;42.662;23.350;2023-02-15T12:16:21;19.60;;;17.37;;
16792;SDS011;8513;42.662;23.350;2023-02-15T12:18:47;21.27;;;19.13;;
16792;SDS011;8513;42.662;23.350;2023-02-15T12:24:18;18.73;;;16.90;;
16792;SDS011;8513;42.662;23.350;2023-02-15T12:29:30;18.58;;;16.92;;
16792;SDS011;8513;42.662;23.350;2023-02-15T12:32:00;19.67;;;17.98;;
16792;SDS011;8513;42.662;23.350;2023-02-15T12:34:30;20.25;;;18.42;;
16792;SDS011;8513;42.662;23.350;2023-02-15T12:37:08;20.83;;;18.92;;
16792;SDS011;8513;42.662;23.350;2023-02-15T12:39:39;20.08;;;18.38;;
16792;SDS011;8513;42.662;23.350;2023-02-15T12:42:17;21.10;;;19.35;;
16792;SDS011;8513;42.662;23.350;2023-02-15T12:45:19;20.58;;;18.90;;
16792;SDS011;8513;42.662;23.350;2023-02-15T12:47:45;21.67;;;19.92;;
16792;SDS011;8513;42.662;23.350;2023-02-15T12:50:23;22.20;;;20.42;;
16792;SDS011;8513;42.662;23.350;2023-02-15T12:53:02;22.35;;;20.55;;
16792;SDS011;8513;42.662;23.350;2023-02-15T12:55:32;21.65;;;19.92;;
16792;SDS011;8513;42.662;23.350;2023-02-15T12:58:31;22.58;;;20.77;;
16792;SDS011;8513;42.662;23.350;2023-02-15T13:01:11;21.50;;;19.75;;
16792;SDS011;8513;42.662;23.350;2023-02-15T13:06:28;20.45;;;18.95;;
16792;SDS011;8513;42.662;23.350;2023-02-15T13:08:58;22.00;;;20.30;;
16792;SDS011;8513;42.662;23.350;2023-02-15T13:11:31;20.20;;;18.42;;
16792;SDS011;8513;42.662;23.350;2023-02-15T13:14:03;20.73;;;19.13;;
16792;SDS011;8513;42.662;23.350;2023-02-15T13:16:41;20.75;;;19.00;;
16792;SDS011;8513;42.662;23.350;2023-02-15T13:19:17;19.75;;;18.25;;
16792;SDS011;8513;42.662;23.350;2023-02-15T13:21:47;21.67;;;19.98;;
16792;SDS011;8513;42.662;23.350;2023-02-15T13:24:17;23.35;;;21.55;;
16792;SDS011;8513;42.662;23.350;2023-02-15T13:26:45;22.30;;;20.50;;
16792;SDS011;8513;42.662;23.350;2023-02-15T13:29:21;22.77;;;20.98;;
16792;SDS011;8513;42.662;23.350;2023-02-15T13:31:50;22.52;;;20.70;;
16792;SDS011;8513;42.662;23.350;2023-02-15T13:36:49;22.00;;;20.38;;
16792;SDS011;8513;42.662;23.350;2023-02-15T13:39:26;21.50;;;19.77;;
16792;SDS011;8513;42.662;23.350;2023-02-15T13:50:45;23.98;;;22.25;;
16792;SDS011;8513;42.662;23.350;2023-02-15T13:59:39;23.85;;;21.88;;
16792;SDS011;8513;42.662;23.350;2023-02-15T14:04:39;23.90;;;22.00;;
16792;SDS011;8513;42.662;23.350;2023-02-15T14:16:06;22.95;;;20.98;;
16792;SDS011;8513;42.662;23.350;2023-02-15T14:21:30;22.35;;;20.35;;
16792;SDS011;8513;42.662;23.350;2023-02-15T14:24:12;23.80;;;21.58;;
16792;SDS011;8513;42.662;23.350;2023-02-15T14:29:59;21.67;;;19.58;;
16792;SDS011;8513;42.662;23.350;2023-02-15T14:34:58;23.38;;;21.17;;
16792;SDS011;8513;42.662;23.350;2023-02-15T14:37:48;23.37;;;20.93;;
16792;SDS011;8513;42.662;23.350;2023-02-15T14:42:59;21.77;;;19.67;;
16792;SDS011;8513;42.662;23.350;2023-02-15T14:45:49;23.20;;;20.90;;
16792;SDS011;8513;42.662;23.350;2023-02-15T14:48:16;24.93;;;22.53;;
16792;SDS011;8513;42.662;23.350;2023-02-15T14:50:49;23.58;;;20.98;;
16792;SDS011;8513;42.662;23.350;2023-02-15T14:58:57;24.73;;;22.42;;
16792;SDS011;8513;42.662;23.350;2023-02-15T15:01:26;24.25;;;22.15;;
16792;SDS011;8513;42.662;23.350;2023-02-15T15:04:04;25.55;;;23.13;;
16792;SDS011;8513;42.662;23.350;2023-02-15T15:06:37;23.70;;;21.73;;
16792;SDS011;8513;42.662;23.350;2023-02-15T15:11:53;24.45;;;22.30;;
16792;SDS011;8513;42.662;23.350;2023-02-15T15:14:38;25.10;;;22.70;;
16792;SDS011;8513;42.662;23.350;2023-02-15T15:17:12;23.38;;;21.13;;
16792;SDS011;8513;42.662;23.350;2023-02-15T15:22:25;23.17;;;21.00;;
16792;SDS011;8513;42.662;23.350;2023-02-15T15:24:52;22.65;;;20.55;;
16792;SDS011;8513;42.662;23.350;2023-02-15T15:46:04;25.33;;;22.73;;
16792;SDS011;8513;42.662;23.350;2023-02-15T15:49:02;24.17;;;21.67;;
16792;SDS011;8513;42.662;23.350;2023-02-15T15:51:34;25.27;;;22.60;;
16792;SDS011;8513;42.662;23.350;2023-02-15T15:54:05;25.20;;;22.60;;
16792;SDS011;8513;42.662;23.350;2023-02-15T15:56:34;23.43;;;21.03;;
16792;SDS011;8513;42.662;23.350;2023-02-15T15:59:02;23.53;;;21.20;;
16792;SDS011;8513;42.662;23.350;2023-02-15T16:01:35;25.50;;;22.83;;
16792;SDS011;8513;42.662;23.350;2023-02-15T16:04:10;23.70;;;21.30;;
16792;SDS011;8513;42.662;23.350;2023-02-15T16:06:38;25.23;;;22.53;;
16792;SDS011;8513;42.662;23.350;2023-02-15T16:11:38;24.90;;;22.33;;
16792;SDS011;8513;42.662;23.350;2023-02-15T16:14:39;25.97;;;22.70;;
16792;SDS011;8513;42.662;23.350;2023-02-15T16:17:01;26.67;;;24.07;;
16792;SDS011;8513;42.662;23.350;2023-02-15T16:19:32;26.40;;;23.53;;
16792;SDS011;8513;42.662;23.350;2023-02-15T16:22:01;25.30;;;22.60;;
16792;SDS011;8513;42.662;23.350;2023-02-15T16:27:47;26.33;;;23.53;;
16792;SDS011;8513;42.662;23.350;2023-02-15T16:30:27;25.90;;;23.20;;
16792;SDS011;8513;42.662;23.350;2023-02-15T16:35:27;25.00;;;22.37;;
16792;SDS011;8513;42.662;23.350;2023-02-15T16:37:53;25.97;;;23.27;;
16792;SDS011;8513;42.662;23.350;2023-02-15T16:42:57;28.30;;;25.20;;
16792;SDS011;8513;42.662;23.350;2023-02-15T16:45:27;27.07;;;24.13;;
16792;SDS011;8513;42.662;23.350;2023-02-15T16:47:57;26.87;;;24.00;;
16792;SDS011;8513;42.662;23.350;2023-02-15T16:50:31;27.37;;;24.53;;
16792;SDS011;8513;42.662;23.350;2023-02-15T16:52:59;27.67;;;24.77;;
16792;SDS011;8513;42.662;23.350;2023-02-15T16:55:27;27.30;;;24.50;;
16792;SDS011;8513;42.662;23.350;2023-02-15T16:58:01;28.83;;;25.07;;
16792;SDS011;8513;42.662;23.350;2023-02-15T17:00:31;29.07;;;24.27;;
16792;SDS011;8513;42.662;23.350;2023-02-15T17:03:04;26.87;;;23.97;;
16792;SDS011;8513;42.662;23.350;2023-02-15T17:10:37;27.97;;;24.90;;
16792;SDS011;8513;42.662;23.350;2023-02-15T17:13:10;26.37;;;23.57;;
16792;SDS011;8513;42.662;23.350;2023-02-15T17:15:44;27.00;;;24.13;;
16792;SDS011;8513;42.662;23.350;2023-02-15T17:18:33;26.63;;;23.87;;
16792;SDS011;8513;42.662;23.350;2023-02-15T17:21:11;28.53;;;25.53;;
16792;SDS011;8513;42.662;23.350;2023-02-15T17:23:43;26.73;;;23.47;;
16792;SDS011;8513;42.662;23.350;2023-02-15T17:26:15;31.37;;;25.27;;
16792;SDS011;8513;42.662;23.350;2023-02-15T17:28:46;28.23;;;23.97;;
16792;SDS011;8513;42.662;23.350;2023-02-15T17:31:16;29.83;;;26.63;;
16792;SDS011;8513;42.662;23.350;2023-02-15T17:33:43;28.70;;;25.63;;
16792;SDS011;8513;42.662;23.350;2023-02-15T17:39:18;28.93;;;25.43;;
16792;SDS011;8513;42.662;23.350;2023-02-15T17:41:44;29.07;;;26.00;;
16792;SDS011;8513;42.662;23.350;2023-02-15T17:44:09;30.63;;;25.80;;
16792;SDS011;8513;42.662;23.350;2023-02-15T17:46:39;27.50;;;24.40;;
16792;SDS011;8513;42.662;23.350;2023-02-15T17:49:05;29.10;;;26.00;;
16792;SDS011;8513;42.662;23.350;2023-02-15T17:51:31;28.37;;;25.37;;
16792;SDS011;8513;42.662;23.350;2023-02-15T17:53:59;29.27;;;26.17;;
16792;SDS011;8513;42.662;23.350;2023-02-15T17:56:44;30.47;;;26.57;;
16792;SDS011;8513;42.662;23.350;2023-02-15T17:59:09;30.57;;;25.93;;
16792;SDS011;8513;42.662;23.350;2023-02-15T18:01:37;28.73;;;25.73;;
16792;SDS011;8513;42.662;23.350;2023-02-15T18:04:33;28.57;;;25.47;;
16792;SDS011;8513;42.662;23.350;2023-02-15T18:07:19;32.40;;;26.37;;
16792;SDS011;8513;42.662;23.350;2023-02-15T18:10:17;29.67;;;26.47;;
16792;SDS011;8513;42.662;23.350;2023-02-15T18:13:02;26.97;;;24.03;;
16792;SDS011;8513;42.662;23.350;2023-02-15T18:15:28;28.67;;;25.43;;
16792;SDS011;8513;42.662;23.350;2023-02-15T18:17:54;27.20;;;24.27;;
16792;SDS011;8513;42.662;23.350;2023-02-15T18:20:21;27.27;;;24.23;;
16792;SDS011;8513;42.662;23.350;2023-02-15T18:23:00;27.40;;;24.47;;